createdAt,value
2022-08-16T00:01:47.804Z,93.59
2022-08-16T00:06:51.988Z,93.62
2022-08-16T00:11:55.596Z,94.36
2022-08-16T00:17:15.866Z,94.91
2022-08-16T00:22:21.271Z,94.66
2022-08-16T00:27:31.386Z,94.21
2022-08-16T00:32:33.728Z,95.23
2022-08-16T00:37:56.776Z,94.70
2022-08-16T00:42:58.979Z,94.98
2022-08-16T00:48:03.140Z,95.28
2022-08-16T00:53:25.410Z,95.45
2022-08-16T00:58:34.614Z,95.00
2022-08-16T01:03:41.550Z,94.87
2022-08-16T01:08:47.185Z,94.80
2022-08-16T01:13:59.301Z,94.61
2022-08-16T01:19:11.276Z,95.15
2022-08-16T01:24:52.467Z,95.33
2022-08-16T01:29:56.876Z,94.81
2022-08-16T01:35:02.162Z,95.12
2022-08-16T01:40:07.709Z,95.21
2022-08-16T01:45:10.411Z,94.59
2022-08-16T01:50:42.063Z,94.71
2022-08-16T01:55:37.520Z,94.72
2022-08-16T02:00:43.102Z,95.42
2022-08-16T02:05:51.969Z,95.19
2022-08-16T02:10:55.815Z,95.26
2022-08-16T02:15:58.247Z,95.24
2022-08-16T02:21:00.909Z,95.75
2022-08-16T02:26:05.260Z,95.57
2022-08-16T02:31:10.348Z,95.18
2022-08-16T02:36:49.703Z,95.55
2022-08-16T02:41:40.252Z,95.55
2022-08-16T02:46:49.952Z,95.02
2022-08-16T02:51:53.445Z,95.71
2022-08-16T02:56:56.821Z,95.88
2022-08-16T03:01:59.110Z,95.55
2022-08-16T03:07:01.141Z,95.43
2022-08-16T03:12:08.040Z,95.53
2022-08-16T03:17:09.921Z,95.38
2022-08-16T03:22:11.947Z,95.33
2022-08-16T03:27:23.281Z,95.39
2022-08-16T03:32:25.171Z,95.09
2022-08-16T03:37:28.740Z,95.19
2022-08-16T03:42:32.177Z,95.05
2022-08-16T03:47:34.552Z,95.18
2022-08-16T03:52:36.965Z,95.49
2022-08-16T03:57:52.099Z,94.86
2022-08-16T04:02:56.704Z,95.00
2022-08-16T04:07:58.746Z,94.71
2022-08-16T04:13:04.475Z,94.97
2022-08-16T04:18:06.884Z,94.98
2022-08-16T04:23:09.605Z,95.39
2022-08-16T04:28:51.989Z,94.86
2022-08-16T04:33:34.927Z,94.71
2022-08-16T04:38:37.274Z,94.46
2022-08-16T04:43:43.570Z,94.48
2022-08-16T04:48:45.802Z,94.14
2022-08-16T04:53:49.139Z,94.31
2022-08-16T04:58:52.987Z,94.34
2022-08-16T05:04:01.756Z,93.95
2022-08-16T05:09:06.136Z,94.34
2022-08-16T05:14:09.873Z,90.29
2022-08-16T05:19:16.395Z,89.39
2022-08-16T05:24:22.198Z,86.12
2022-08-16T05:29:57.707Z,83.84
2022-08-16T05:34:50.415Z,80.54
2022-08-16T05:39:55.492Z,72.21
2022-08-16T05:44:59.216Z,71.71
2022-08-16T05:50:01.349Z,72.36
2022-08-16T05:55:05.824Z,72.68
2022-08-16T06:00:11.011Z,73.04
2022-08-16T06:05:14.644Z,71.03
2022-08-16T06:10:31.953Z,63.99
2022-08-16T06:15:36.576Z,62.18
2022-08-16T06:20:55.282Z,64.01
2022-08-16T06:25:58.596Z,68.91
2022-08-16T06:31:02.249Z,77.24
2022-08-16T06:36:08.403Z,80.69
2022-08-16T06:41:13.577Z,80.93
2022-08-16T06:46:31.353Z,82.00
2022-08-16T06:51:45.773Z,81.50
2022-08-16T06:56:52.374Z,81.34
2022-08-16T07:01:58.343Z,82.74
2022-08-16T07:07:00.912Z,82.34
2022-08-16T07:12:05.440Z,81.82
2022-08-16T07:17:11.436Z,80.56
2022-08-16T07:22:36.590Z,81.56
2022-08-16T07:27:38.086Z,79.73
2022-08-16T07:32:41.660Z,80.82
2022-08-16T07:37:53.957Z,80.92
2022-08-16T07:42:55.725Z,79.86
2022-08-16T07:47:59.056Z,78.88
2022-08-16T07:53:13.849Z,77.68
2022-08-16T07:58:18.338Z,73.99
2022-08-16T08:03:39.911Z,72.67
2022-08-16T08:08:50.198Z,71.74
2022-08-16T08:13:56.804Z,71.68
2022-08-16T08:19:02.511Z,71.09
2022-08-16T08:24:05.034Z,68.66
2022-08-16T08:29:11.897Z,67.56
2022-08-16T08:34:15.283Z,64.75
2022-08-16T08:39:20.868Z,65.27
2022-08-16T08:44:28.949Z,64.45
2022-08-16T08:49:46.719Z,62.83
2022-08-16T08:54:56.843Z,61.84
2022-08-16T08:59:58.963Z,59.36
2022-08-16T09:05:02.102Z,56.81
2022-08-16T09:10:20.869Z,48.20
2022-08-16T09:15:24.031Z,44.20
2022-08-16T09:20:27.719Z,39.11
2022-08-16T09:25:34.269Z,37.31
2022-08-16T09:30:44.185Z,39.63
2022-08-16T09:35:53.734Z,38.53
2022-08-16T09:40:56.625Z,38.62
2022-08-16T09:46:01.462Z,38.30
2022-08-16T09:51:06.227Z,34.11
2022-08-16T09:56:14.829Z,34.29
2022-08-16T10:01:19.995Z,32.91
2022-08-16T10:06:24.889Z,34.33
2022-08-16T10:11:26.661Z,29.93
2022-08-16T10:16:30.844Z,33.36
2022-08-16T10:21:34.664Z,39.63
2022-08-16T10:27:16.138Z,36.69
2022-08-16T10:31:59.088Z,34.73
2022-08-16T10:37:03.735Z,30.03
2022-08-16T10:42:05.973Z,30.29
2022-08-16T10:47:07.792Z,32.79
2022-08-16T10:52:18.337Z,40.02
2022-08-16T10:57:21.257Z,41.57
2022-08-16T11:02:58.780Z,43.83
2022-08-16T11:07:52.421Z,43.39
2022-08-16T11:12:56.438Z,43.86
2022-08-16T11:23:22.322Z,37.94
2022-08-16T11:33:55.031Z,36.83
2022-08-16T11:38:59.753Z,36.18
2022-08-16T11:44:02.594Z,38.03
2022-08-16T11:49:11.227Z,36.88
2022-08-16T11:54:20.897Z,37.17
2022-08-16T11:59:28.497Z,37.97
2022-08-16T12:04:31.528Z,39.12
2022-08-16T12:09:35.108Z,39.85
2022-08-16T12:14:41.864Z,40.38
2022-08-16T12:19:48.082Z,41.18
2022-08-16T12:24:52.646Z,41.41
2022-08-16T12:29:55.004Z,41.66
2022-08-16T12:35:01.492Z,41.18
2022-08-16T12:40:08.566Z,38.94
2022-08-16T12:45:28.547Z,35.77
2022-08-16T12:50:32.992Z,36.23
2022-08-16T12:55:41.777Z,37.85
2022-08-16T13:00:44.054Z,36.15
2022-08-16T13:05:55.483Z,37.11
2022-08-16T13:10:59.762Z,36.25
2022-08-16T13:16:15.495Z,37.21
2022-08-16T13:21:23.365Z,36.17
2022-08-16T13:26:27.664Z,35.96
2022-08-16T13:31:29.605Z,37.66
2022-08-16T13:36:48.550Z,37.77
2022-08-16T13:41:53.841Z,38.64
2022-08-16T13:46:56.436Z,38.46
2022-08-16T13:51:58.213Z,38.16
2022-08-16T13:57:02.729Z,35.77
2022-08-16T14:02:07.451Z,35.12
2022-08-16T14:07:12.872Z,37.10
2022-08-16T14:12:25.847Z,37.11
2022-08-16T14:17:29.013Z,35.45
2022-08-16T14:22:34.913Z,36.71
2022-08-16T14:27:43.413Z,36.93
2022-08-16T14:32:48.150Z,37.02
2022-08-16T14:37:57.127Z,37.86
2022-08-16T14:43:06.975Z,38.06
2022-08-16T14:48:09.441Z,38.20
2022-08-16T14:53:11.188Z,37.24
2022-08-16T14:58:19.564Z,36.24
2022-08-16T15:03:21.667Z,34.65
2022-08-16T15:08:36.109Z,33.35
2022-08-16T15:13:40.766Z,34.45
2022-08-16T15:18:42.629Z,35.64
2022-08-16T15:23:48.568Z,35.54
2022-08-16T15:28:52.717Z,36.38
2022-08-16T15:33:56.727Z,36.33
2022-08-16T15:39:07.807Z,35.44
2022-08-16T15:44:25.692Z,34.76
2022-08-16T15:49:34.720Z,33.59
2022-08-16T15:54:53.442Z,34.13
2022-08-16T16:00:15.038Z,35.16
2022-08-16T16:05:17.843Z,33.55
2022-08-16T16:10:20.176Z,34.11
2022-08-16T16:15:32.613Z,33.42
2022-08-16T16:20:35.052Z,33.52
2022-08-16T16:25:43.918Z,35.75
2022-08-16T16:30:47.911Z,36.07
2022-08-16T16:35:55.479Z,40.28
2022-08-16T16:41:00.759Z,37.18
2022-08-16T16:46:05.864Z,38.21
2022-08-16T16:51:28.094Z,36.98
2022-08-16T16:56:37.284Z,37.62
2022-08-16T17:01:59.093Z,38.26
2022-08-16T17:07:10.685Z,39.28
2022-08-16T17:12:17.660Z,40.59
2022-08-16T17:17:29.676Z,39.75
2022-08-16T17:22:32.974Z,41.40
2022-08-16T17:27:35.611Z,42.54
2022-08-16T17:32:47.802Z,41.54
2022-08-16T17:37:52.500Z,41.39
2022-08-16T17:42:57.059Z,41.55
2022-08-16T17:48:00.403Z,45.06
2022-08-16T17:53:04.171Z,47.53
2022-08-16T17:58:21.264Z,49.05
2022-08-16T18:04:03.183Z,50.58
2022-08-16T18:09:00.343Z,51.21
2022-08-16T18:14:05.755Z,53.64
2022-08-16T18:19:10.025Z,54.15
2022-08-16T18:24:14.262Z,54.95
2022-08-16T18:29:17.207Z,55.82
2022-08-16T18:34:20.752Z,56.87
2022-08-16T18:39:23.130Z,57.65
2022-08-16T18:44:30.105Z,57.78
2022-08-16T18:49:36.410Z,58.50
2022-08-16T18:55:01.724Z,60.22
2022-08-16T19:00:01.009Z,59.60
2022-08-16T19:05:05.158Z,61.00
2022-08-16T19:10:08.902Z,62.81
2022-08-16T19:15:16.205Z,62.56
2022-08-16T19:20:22.819Z,63.97
2022-08-16T19:25:47.267Z,64.02
2022-08-16T19:30:48.802Z,64.79
2022-08-16T19:35:52.749Z,66.36
2022-08-16T19:40:54.587Z,67.53
2022-08-16T19:45:56.681Z,67.88
2022-08-16T19:51:00.423Z,67.94
2022-08-16T19:56:02.221Z,68.34
2022-08-16T20:01:03.939Z,68.91
2022-08-16T20:06:07.607Z,69.41
2022-08-16T20:11:14.940Z,69.92
2022-08-16T20:16:17.812Z,70.22
2022-08-16T20:21:21.903Z,69.91
2022-08-16T20:26:27.214Z,70.30
2022-08-16T20:31:28.946Z,70.52
2022-08-16T20:36:32.481Z,71.18
2022-08-16T20:41:34.481Z,72.51
2022-08-16T20:46:39.795Z,72.86
2022-08-16T20:51:49.519Z,71.94
2022-08-16T20:56:54.750Z,72.21
2022-08-16T21:01:58.076Z,72.63
2022-08-16T21:07:01.618Z,73.91
2022-08-16T21:12:06.286Z,73.68
2022-08-16T21:17:09.794Z,73.21
2022-08-16T21:22:18.373Z,73.33
2022-08-16T21:27:20.553Z,72.36
2022-08-16T21:32:35.386Z,73.18
2022-08-16T21:37:40.537Z,74.11
2022-08-16T21:42:43.315Z,74.73
2022-08-16T21:47:45.569Z,75.75
2022-08-16T21:52:49.358Z,75.50
2022-08-16T21:57:51.499Z,76.41
2022-08-16T22:02:54.508Z,75.85
2022-08-16T22:08:01.304Z,75.78
2022-08-16T22:13:04.936Z,75.86
2022-08-16T22:18:06.909Z,77.45
2022-08-16T22:23:12.706Z,76.73
2022-08-16T22:28:15.964Z,76.79
2022-08-16T22:33:20.889Z,76.67
2022-08-16T22:38:54.455Z,78.29
2022-08-16T22:43:47.563Z,78.38
2022-08-16T22:48:49.817Z,78.40
2022-08-16T22:53:53.737Z,78.56
2022-08-16T22:58:56.957Z,78.88
2022-08-16T23:03:59.233Z,79.31
2022-08-16T23:09:03.113Z,80.05
2022-08-16T23:14:06.354Z,79.76
2022-08-16T23:19:11.249Z,79.63
2022-08-16T23:24:16.819Z,79.83
2022-08-16T23:29:23.843Z,79.43
2022-08-16T23:34:30.041Z,79.39
2022-08-16T23:39:33.178Z,81.16
2022-08-16T23:44:56.993Z,81.37
2022-08-16T23:50:03.504Z,80.64
2022-08-16T23:55:08.877Z,80.53
